createdAt,value
2023-04-13T00:00:15.358Z,84.66
2023-04-13T00:01:15.433Z,84.56
2023-04-13T00:02:16.417Z,84.45
2023-04-13T00:03:15.524Z,84.35
2023-04-13T00:04:15.368Z,84.14
2023-04-13T00:05:15.323Z,83.94
2023-04-13T00:06:15.331Z,83.94
2023-04-13T00:07:15.804Z,83.73
2023-04-13T00:08:15.284Z,83.73
2023-04-13T00:09:15.296Z,83.49
2023-04-13T00:10:15.268Z,83.49
2023-04-13T00:11:15.252Z,83.49
2023-04-13T00:12:15.255Z,83.49
2023-04-13T00:13:15.325Z,83.18
2023-04-13T00:14:15.206Z,83.28
2023-04-13T00:15:15.200Z,83.39
2023-04-13T00:16:15.194Z,83.39
2023-04-13T00:17:15.222Z,83.07
2023-04-13T00:18:15.191Z,82.25
2023-04-13T00:19:15.184Z,81.95
2023-04-13T00:20:15.184Z,81.84
2023-04-13T00:21:15.124Z,82.01
2023-04-13T00:22:15.128Z,82.11
2023-04-13T00:23:15.120Z,82.01
2023-04-13T00:24:15.095Z,82.01
2023-04-13T00:25:15.085Z,82.21
2023-04-13T00:26:15.064Z,82.73
2023-04-13T00:27:15.086Z,82.93
2023-04-13T00:28:15.077Z,82.83
2023-04-13T00:29:15.055Z,82.83
2023-04-13T00:30:15.052Z,82.93
2023-04-13T00:31:15.100Z,82.73
2023-04-13T00:32:15.013Z,82.53
2023-04-13T00:33:15.042Z,82.63
2023-04-13T00:34:14.984Z,82.73
2023-04-13T00:35:15.012Z,82.63
2023-04-13T00:36:14.994Z,82.93
2023-04-13T00:37:14.959Z,83.25
2023-04-13T00:38:14.966Z,83.45
2023-04-13T00:39:14.936Z,83.76
2023-04-13T00:40:14.909Z,84.07
2023-04-13T00:41:14.957Z,84.72
2023-04-13T00:42:14.891Z,85.03
2023-04-13T00:43:15.911Z,85.34
2023-04-13T00:44:14.881Z,85.65
2023-04-13T00:45:14.858Z,86.16
2023-04-13T00:46:14.917Z,86.58
2023-04-13T00:47:14.867Z,86.93
2023-04-13T00:48:14.819Z,87.13
2023-04-13T00:49:14.828Z,87.24
2023-04-13T00:50:14.812Z,87.44
2023-04-13T00:51:14.819Z,87.75
2023-04-13T00:52:14.817Z,88.06
2023-04-13T00:53:14.779Z,88.17
2023-04-13T00:54:14.773Z,88.41
2023-04-13T00:55:14.817Z,88.62
2023-04-13T00:56:14.752Z,88.72
2023-04-13T00:57:14.737Z,88.72
2023-04-13T00:58:14.785Z,88.72
2023-04-13T00:59:14.757Z,88.72
2023-04-13T01:00:14.719Z,88.82
2023-04-13T01:01:14.746Z,88.82
2023-04-13T01:02:14.817Z,88.92
2023-04-13T01:03:14.782Z,89.03
2023-04-13T01:04:14.664Z,89.13
2023-04-13T01:05:14.685Z,89.13
2023-04-13T01:06:14.640Z,89.13
2023-04-13T01:07:14.633Z,89.13
2023-04-13T01:08:14.621Z,89.03
2023-04-13T01:09:14.654Z,88.92
2023-04-13T01:10:14.596Z,89.03
2023-04-13T01:11:14.578Z,89.13
2023-04-13T01:12:14.561Z,89.23
2023-04-13T01:13:14.574Z,89.34
2023-04-13T01:14:14.567Z,89.13
2023-04-13T01:15:14.622Z,88.92
2023-04-13T01:16:14.568Z,88.82
2023-04-13T01:17:14.615Z,88.72
2023-04-13T01:18:14.514Z,88.51
2023-04-13T01:19:14.500Z,88.41
2023-04-13T01:20:14.482Z,88.20
2023-04-13T01:21:14.476Z,87.75
2023-04-13T01:22:14.545Z,87.65
2023-04-13T01:23:14.491Z,87.65
2023-04-13T01:24:15.488Z,87.44
2023-04-13T01:25:14.427Z,87.13
2023-04-13T01:26:14.432Z,86.82
2023-04-13T01:27:14.396Z,86.61
2023-04-13T01:28:14.424Z,86.52
2023-04-13T01:29:14.394Z,86.31
2023-04-13T01:30:14.419Z,85.79
2023-04-13T01:31:14.408Z,85.79
2023-04-13T01:32:14.356Z,85.69
2023-04-13T01:33:14.497Z,85.59
2023-04-13T01:34:14.331Z,85.49
2023-04-13T01:35:14.335Z,85.17
2023-04-13T01:36:14.343Z,85.03
2023-04-13T01:37:14.310Z,85.03
2023-04-13T01:38:14.270Z,85.03
2023-04-13T01:39:14.338Z,84.93
2023-04-13T01:40:14.328Z,84.52
2023-04-13T01:41:14.261Z,84.31
2023-04-13T01:42:14.268Z,84.11
2023-04-13T01:43:14.240Z,84.11
2023-04-13T01:44:14.237Z,84.00
2023-04-13T01:45:14.200Z,83.90
2023-04-13T01:46:14.290Z,83.70
2023-04-13T01:47:14.189Z,83.59
2023-04-13T01:48:14.209Z,83.49
2023-04-13T01:49:14.186Z,83.39
2023-04-13T01:50:14.149Z,83.25
2023-04-13T01:51:14.748Z,83.35
2023-04-13T01:52:14.152Z,83.35
2023-04-13T01:53:14.154Z,83.35
2023-04-13T01:54:14.160Z,83.04
2023-04-13T01:55:14.102Z,82.83
2023-04-13T01:56:14.091Z,82.93
2023-04-13T01:57:14.080Z,83.04
2023-04-13T01:58:14.069Z,82.93
2023-04-13T01:59:14.054Z,83.04
2023-04-13T02:00:14.145Z,83.14
2023-04-13T02:01:14.064Z,82.83
2023-04-13T02:02:14.132Z,82.73
2023-04-13T02:03:15.029Z,82.73
2023-04-13T02:04:14.393Z,82.73
2023-04-13T02:05:14.039Z,82.93
2023-04-13T02:06:13.995Z,83.04
2023-04-13T02:07:13.973Z,82.83
2023-04-13T02:08:14.077Z,82.83
2023-04-13T02:09:13.939Z,82.93
2023-04-13T02:10:13.955Z,82.93
2023-04-13T02:11:13.975Z,82.83
2023-04-13T02:12:13.908Z,82.83
2023-04-13T02:13:13.912Z,83.04
2023-04-13T02:14:13.898Z,83.35
2023-04-13T02:15:13.932Z,83.25
2023-04-13T02:16:15.359Z,83.04
2023-04-13T02:17:13.863Z,83.14
2023-04-13T02:18:13.846Z,82.93
2023-04-13T02:19:13.888Z,83.04
2023-04-13T02:20:13.871Z,83.04
2023-04-13T02:21:13.872Z,83.04
2023-04-13T02:22:13.824Z,82.83
2023-04-13T02:23:13.888Z,82.93
2023-04-13T02:24:13.779Z,82.83
2023-04-13T02:25:13.763Z,82.73
2023-04-13T02:26:13.783Z,82.73
2023-04-13T02:27:13.780Z,82.63
2023-04-13T02:28:13.726Z,82.63
2023-04-13T02:29:13.753Z,82.53
2023-04-13T02:30:13.740Z,82.63
2023-04-13T02:31:13.704Z,82.83
2023-04-13T02:32:14.565Z,82.83
2023-04-13T02:33:13.703Z,82.93
2023-04-13T02:34:13.675Z,83.04
2023-04-13T02:35:13.690Z,83.25
2023-04-13T02:36:15.132Z,83.35
2023-04-13T02:37:13.687Z,83.45
2023-04-13T02:38:13.616Z,83.55
2023-04-13T02:39:13.628Z,83.65
2023-04-13T02:40:14.170Z,83.76
2023-04-13T02:41:13.607Z,83.86
2023-04-13T02:42:14.048Z,83.97
2023-04-13T02:43:13.561Z,84.07
2023-04-13T02:44:13.566Z,84.07
2023-04-13T02:45:13.597Z,83.65
2023-04-13T02:46:13.571Z,83.25
2023-04-13T02:47:14.494Z,83.04
2023-04-13T02:48:13.502Z,83.14
2023-04-13T02:49:13.504Z,83.25
2023-04-13T02:50:13.510Z,83.14
2023-04-13T02:51:13.718Z,83.14
2023-04-13T02:52:13.496Z,82.73
2023-04-13T02:53:13.469Z,82.39
2023-04-13T02:54:13.448Z,82.39
2023-04-13T02:55:13.451Z,82.28
2023-04-13T02:56:13.429Z,82.48
2023-04-13T02:57:13.460Z,82.59
2023-04-13T02:58:13.411Z,82.69
2023-04-13T02:59:13.401Z,82.69
2023-04-13T03:00:13.381Z,82.69
2023-04-13T03:01:13.409Z,82.69
2023-04-13T03:02:13.416Z,82.39
2023-04-13T03:03:13.446Z,82.28
2023-04-13T03:04:13.366Z,82.39
2023-04-13T03:05:13.342Z,82.48
2023-04-13T03:06:13.362Z,82.69
2023-04-13T03:07:13.302Z,82.69
2023-04-13T03:08:13.289Z,82.79
2023-04-13T03:09:13.312Z,82.90
2023-04-13T03:10:13.265Z,82.69
2023-04-13T03:11:13.260Z,82.59
2023-04-13T03:12:14.722Z,82.48
2023-04-13T03:13:13.497Z,82.48
2023-04-13T03:14:13.271Z,82.59
2023-04-13T03:15:14.195Z,82.59
2023-04-13T03:16:13.262Z,82.48
2023-04-13T03:17:13.878Z,82.18
2023-04-13T03:18:14.129Z,82.07
2023-04-13T03:19:13.177Z,82.28
2023-04-13T03:20:13.232Z,82.18
2023-04-13T03:21:13.161Z,82.18
2023-04-13T03:22:14.094Z,81.87
2023-04-13T03:23:13.128Z,81.87
2023-04-13T03:24:13.104Z,81.97
2023-04-13T03:25:13.134Z,82.07
2023-04-13T03:26:13.092Z,82.28
2023-04-13T03:27:13.123Z,82.28
2023-04-13T03:28:13.079Z,82.07
2023-04-13T03:29:13.087Z,81.87
2023-04-13T03:30:13.065Z,81.76
2023-04-13T03:31:13.084Z,81.35
2023-04-13T03:32:13.029Z,81.25
2023-04-13T03:33:13.034Z,81.35
2023-04-13T03:34:13.015Z,81.56
2023-04-13T03:35:13.978Z,81.87
2023-04-13T03:36:13.027Z,82.07
2023-04-13T03:37:12.972Z,82.07
2023-04-13T03:38:12.969Z,81.97
2023-04-13T03:39:12.952Z,81.87
2023-04-13T03:40:12.973Z,81.87
2023-04-13T03:41:12.935Z,81.87
2023-04-13T03:42:12.935Z,81.91
2023-04-13T03:43:12.907Z,81.91
2023-04-13T03:44:12.917Z,82.01
2023-04-13T03:45:12.881Z,82.11
2023-04-13T03:46:12.951Z,82.32
2023-04-13T03:47:12.839Z,82.32
2023-04-13T03:48:13.840Z,82.32
2023-04-13T03:49:12.827Z,82.53
2023-04-13T03:50:12.843Z,82.73
2023-04-13T03:51:12.826Z,83.04
2023-04-13T03:52:12.813Z,83.04
2023-04-13T03:53:13.807Z,83.04
2023-04-13T03:54:12.793Z,82.93
2023-04-13T03:55:12.768Z,83.04
2023-04-13T03:56:13.734Z,83.14
2023-04-13T03:57:12.776Z,83.35
2023-04-13T03:58:12.739Z,83.35
2023-04-13T03:59:12.727Z,83.55
2023-04-13T04:00:12.712Z,83.76
2023-04-13T04:01:12.698Z,83.97
2023-04-13T04:02:12.734Z,84.07
2023-04-13T04:03:12.850Z,84.17
2023-04-13T04:04:12.827Z,84.38
2023-04-13T04:05:12.716Z,84.69
2023-04-13T04:06:12.655Z,84.89
2023-04-13T04:07:12.652Z,85.10
2023-04-13T04:08:12.656Z,85.44
2023-04-13T04:09:12.641Z,85.96
2023-04-13T04:10:12.615Z,86.37
2023-04-13T04:11:12.612Z,86.58
2023-04-13T04:12:14.446Z,86.79
2023-04-13T04:13:12.554Z,86.99
2023-04-13T04:14:13.228Z,87.30
2023-04-13T04:15:12.581Z,87.71
2023-04-13T04:16:12.582Z,87.81
2023-04-13T04:17:13.492Z,87.60
2023-04-13T04:18:12.512Z,87.40
2023-04-13T04:19:12.513Z,87.60
2023-04-13T04:20:12.486Z,87.92
2023-04-13T04:21:13.357Z,88.02
2023-04-13T04:22:12.504Z,88.12
2023-04-13T04:23:12.477Z,88.12
2023-04-13T04:24:12.517Z,88.02
2023-04-13T04:25:12.424Z,87.81
2023-04-13T04:26:12.448Z,87.92
2023-04-13T04:27:12.886Z,88.23
2023-04-13T04:28:12.433Z,88.26
2023-04-13T04:29:12.398Z,88.26
2023-04-13T04:30:12.382Z,88.26
2023-04-13T04:31:12.407Z,88.26
2023-04-13T04:32:12.462Z,88.37
2023-04-13T04:33:12.354Z,88.37
2023-04-13T04:34:12.341Z,88.37
2023-04-13T04:35:12.339Z,88.37
2023-04-13T04:36:13.274Z,88.57
2023-04-13T04:37:20.426Z,88.78
2023-04-13T04:38:13.295Z,88.89
2023-04-13T04:39:12.318Z,88.89
2023-04-13T04:40:12.305Z,89.09
2023-04-13T04:41:12.291Z,89.19
2023-04-13T04:42:12.267Z,89.19
2023-04-13T04:43:12.260Z,89.29
2023-04-13T04:44:12.254Z,89.40
2023-04-13T04:45:12.256Z,89.40
2023-04-13T04:46:15.251Z,89.40
2023-04-13T04:47:12.186Z,89.50
2023-04-13T04:48:12.228Z,89.61
2023-04-13T04:49:12.222Z,89.71
2023-04-13T04:50:12.163Z,89.71
2023-04-13T04:51:13.119Z,89.81
2023-04-13T04:52:12.193Z,89.71
2023-04-13T04:53:12.219Z,89.71
2023-04-13T04:54:12.120Z,89.81
2023-04-13T04:55:12.124Z,89.91
2023-04-13T04:56:12.129Z,89.91
2023-04-13T04:57:12.078Z,89.91
2023-04-13T04:58:12.158Z,90.01
2023-04-13T04:59:12.062Z,89.91
2023-04-13T05:00:12.906Z,89.91
2023-04-13T05:01:12.112Z,89.91
2023-04-13T05:02:12.085Z,89.91
2023-04-13T05:03:12.064Z,90.01
2023-04-13T05:04:12.040Z,90.01
2023-04-13T05:05:13.463Z,90.01
2023-04-13T05:06:13.406Z,90.12
2023-04-13T05:07:12.005Z,90.22
2023-04-13T05:08:12.017Z,90.22
2023-04-13T05:09:11.975Z,90.33
2023-04-13T05:10:11.957Z,90.43
2023-04-13T05:11:12.751Z,90.43
2023-04-13T05:12:11.960Z,90.43
2023-04-13T05:13:11.912Z,90.53
2023-04-13T05:14:11.907Z,90.64
2023-04-13T05:15:11.878Z,90.64
2023-04-13T05:16:12.426Z,90.73
2023-04-13T05:17:11.923Z,90.84
2023-04-13T05:18:11.903Z,90.84
2023-04-13T05:19:12.067Z,90.84
2023-04-13T05:20:13.294Z,90.84
2023-04-13T05:21:11.820Z,90.73
2023-04-13T05:22:11.857Z,90.64
2023-04-13T05:23:11.806Z,90.64
2023-04-13T05:24:12.231Z,90.64
2023-04-13T05:25:11.884Z,90.73
2023-04-13T05:26:11.761Z,90.64
2023-04-13T05:27:11.800Z,90.43
2023-04-13T05:28:11.750Z,90.33
2023-04-13T05:29:11.751Z,90.33
2023-04-13T05:30:12.131Z,90.22
2023-04-13T05:31:12.705Z,90.12
2023-04-13T05:32:11.738Z,89.97
2023-04-13T05:33:11.702Z,89.97
2023-04-13T05:34:11.740Z,89.87
2023-04-13T05:35:11.660Z,89.67
2023-04-13T05:36:11.745Z,89.56
2023-04-13T05:37:11.639Z,89.56
2023-04-13T05:38:12.451Z,89.46
2023-04-13T05:39:13.106Z,89.36
2023-04-13T05:40:12.434Z,89.25
2023-04-13T05:41:12.441Z,89.15
2023-04-13T05:42:12.073Z,89.15
2023-04-13T05:43:12.559Z,89.05
2023-04-13T05:44:12.550Z,88.95
2023-04-13T05:45:11.556Z,88.84
2023-04-13T05:46:11.631Z,88.74
2023-04-13T05:47:12.370Z,88.64
2023-04-13T05:48:11.525Z,88.64
2023-04-13T05:49:11.511Z,88.64
2023-04-13T05:50:13.458Z,88.64
2023-04-13T05:51:11.560Z,88.64
2023-04-13T05:52:11.499Z,88.53
2023-04-13T05:53:12.398Z,88.59
2023-04-13T05:54:11.754Z,88.59
2023-04-13T05:55:11.522Z,88.49
2023-04-13T05:56:11.436Z,88.49
2023-04-13T05:57:11.426Z,88.39
2023-04-13T05:58:11.444Z,88.29
2023-04-13T05:59:11.397Z,88.08
2023-04-13T06:00:11.393Z,88.08
2023-04-13T06:01:11.417Z,88.08
2023-04-13T06:02:11.461Z,88.08
2023-04-13T06:03:11.470Z,88.08
2023-04-13T06:04:11.731Z,88.18
2023-04-13T06:05:11.367Z,88.18
2023-04-13T06:06:12.830Z,88.39
2023-04-13T06:07:12.044Z,88.08
2023-04-13T06:08:11.300Z,87.98
2023-04-13T06:09:11.288Z,87.87
2023-04-13T06:10:11.292Z,87.57
2023-04-13T06:11:12.723Z,87.36
2023-04-13T06:12:11.274Z,87.15
2023-04-13T06:13:11.243Z,87.05
2023-04-13T06:14:11.229Z,86.85
2023-04-13T06:15:11.244Z,86.85
2023-04-13T06:16:11.241Z,86.74
2023-04-13T06:17:11.277Z,86.74
2023-04-13T06:18:11.196Z,86.43
2023-04-13T06:19:11.169Z,86.23
2023-04-13T06:20:11.230Z,86.23
2023-04-13T06:21:11.194Z,86.33
2023-04-13T06:22:11.465Z,86.33
2023-04-13T06:23:12.121Z,86.02
2023-04-13T06:24:11.134Z,86.02
2023-04-13T06:25:11.113Z,86.02
2023-04-13T06:26:11.128Z,86.02
2023-04-13T06:27:11.086Z,86.19
2023-04-13T06:28:11.121Z,86.19
2023-04-13T06:29:11.871Z,86.19
2023-04-13T06:30:11.060Z,85.98
2023-04-13T06:31:12.830Z,85.68
2023-04-13T06:32:11.846Z,85.47
2023-04-13T06:33:11.013Z,85.36
2023-04-13T06:34:11.170Z,85.26
2023-04-13T06:35:12.457Z,85.16
2023-04-13T06:36:10.997Z,84.75
2023-04-13T06:37:10.998Z,84.44
2023-04-13T06:38:10.973Z,84.13
2023-04-13T06:39:10.953Z,84.23
2023-04-13T06:40:10.993Z,84.40
2023-04-13T06:41:10.920Z,84.20
2023-04-13T06:42:10.945Z,84.20
2023-04-13T06:43:19.015Z,84.03
2023-04-13T06:44:11.892Z,84.03
2023-04-13T06:45:10.913Z,84.23
2023-04-13T06:46:10.896Z,84.40
2023-04-13T06:47:10.906Z,84.61
2023-04-13T06:48:10.888Z,84.71
2023-04-13T06:49:12.294Z,84.50
2023-04-13T06:50:10.832Z,84.30
2023-04-13T06:51:10.929Z,84.30
2023-04-13T06:52:10.810Z,84.50
2023-04-13T06:53:10.813Z,84.61
2023-04-13T06:54:11.630Z,84.61
2023-04-13T06:55:10.779Z,84.67
2023-04-13T06:56:10.758Z,84.67
2023-04-13T06:57:10.746Z,84.56
2023-04-13T06:58:10.779Z,84.05
2023-04-13T06:59:10.720Z,83.85
2023-04-13T07:00:25.941Z,83.85
2023-04-13T07:01:12.737Z,83.64
2023-04-13T07:02:10.794Z,83.64
2023-04-13T07:03:10.908Z,83.64
2023-04-13T07:04:10.965Z,83.54
2023-04-13T07:05:10.728Z,83.64
2023-04-13T07:06:10.674Z,83.61
2023-04-13T07:07:10.665Z,83.70
2023-04-13T07:08:10.645Z,83.70
2023-04-13T07:09:11.605Z,83.50
2023-04-13T07:10:10.663Z,83.40
2023-04-13T07:11:10.605Z,83.19
2023-04-13T07:12:10.605Z,82.99
2023-04-13T07:13:10.623Z,82.89
2023-04-13T07:14:10.625Z,82.78
2023-04-13T07:15:10.573Z,82.78
2023-04-13T07:16:10.625Z,82.78
2023-04-13T07:17:12.765Z,82.89
2023-04-13T07:18:10.571Z,82.99
2023-04-13T07:19:10.555Z,82.89
2023-04-13T07:20:10.510Z,82.89
2023-04-13T07:21:10.772Z,82.89
2023-04-13T07:22:10.481Z,82.78
2023-04-13T07:23:10.471Z,82.89
2023-04-13T07:24:11.412Z,82.89
2023-04-13T07:25:10.508Z,82.89
2023-04-13T07:26:10.458Z,82.68
2023-04-13T07:27:10.675Z,82.57
2023-04-13T07:28:11.386Z,82.71
2023-04-13T07:29:10.418Z,82.82
2023-04-13T07:30:11.417Z,82.92
2023-04-13T07:31:10.817Z,82.92
2023-04-13T07:32:11.845Z,83.03
2023-04-13T07:33:10.374Z,83.13
2023-04-13T07:34:10.400Z,83.23
2023-04-13T07:35:10.334Z,83.44
2023-04-13T07:36:10.348Z,83.54
2023-04-13T07:37:10.331Z,83.54
2023-04-13T07:38:10.397Z,83.44
2023-04-13T07:39:10.386Z,83.33
2023-04-13T07:40:11.743Z,83.33
2023-04-13T07:41:11.762Z,83.54
2023-04-13T07:42:10.804Z,83.64
2023-04-13T07:43:10.258Z,83.64
2023-04-13T07:44:10.276Z,83.44
2023-04-13T07:45:10.242Z,83.23
2023-04-13T07:46:11.224Z,83.44
2023-04-13T07:47:10.271Z,83.19
2023-04-13T07:48:10.226Z,82.92
2023-04-13T07:49:10.656Z,82.92
2023-04-13T07:50:10.854Z,83.23
2023-04-13T07:51:10.393Z,83.61
2023-04-13T07:52:10.188Z,83.81
2023-04-13T07:53:10.140Z,83.61
2023-04-13T07:54:10.180Z,83.40
2023-04-13T07:55:10.177Z,83.09
2023-04-13T07:56:10.102Z,82.99
2023-04-13T07:57:10.089Z,82.89
2023-04-13T07:58:10.293Z,82.99
2023-04-13T07:59:10.090Z,82.99
2023-04-13T08:00:10.103Z,82.78
2023-04-13T08:01:10.063Z,82.82
2023-04-13T08:02:10.067Z,82.92
2023-04-13T08:03:10.205Z,83.03
2023-04-13T08:04:10.176Z,83.23
2023-04-13T08:05:10.224Z,83.33
2023-04-13T08:06:11.093Z,83.61
2023-04-13T08:07:10.004Z,83.70
2023-04-13T08:08:09.981Z,83.81
2023-04-13T08:09:10.025Z,83.70
2023-04-13T08:10:09.972Z,83.61
2023-04-13T08:11:09.998Z,83.61
2023-04-13T08:12:09.938Z,83.26
2023-04-13T08:13:09.948Z,83.05
2023-04-13T08:14:09.962Z,82.95
2023-04-13T08:15:10.021Z,82.95
2023-04-13T08:16:09.923Z,82.75
2023-04-13T08:17:09.982Z,82.43
2023-04-13T08:18:10.025Z,82.33
2023-04-13T08:19:09.860Z,82.33
2023-04-13T08:20:11.312Z,82.33
2023-04-13T08:21:09.836Z,82.23
2023-04-13T08:22:09.830Z,82.33
2023-04-13T08:23:12.499Z,82.43
2023-04-13T08:24:09.893Z,82.54
2023-04-13T08:25:09.811Z,82.33
2023-04-13T08:26:09.773Z,82.23
2023-04-13T08:27:09.773Z,82.13
2023-04-13T08:28:09.762Z,81.62
2023-04-13T08:29:09.763Z,81.20
2023-04-13T08:30:09.795Z,81.30
2023-04-13T08:31:09.725Z,81.30
2023-04-13T08:32:09.850Z,81.41
2023-04-13T08:33:09.716Z,81.30
2023-04-13T08:34:09.680Z,81.10
2023-04-13T08:35:09.776Z,81.20
2023-04-13T08:36:09.691Z,81.30
2023-04-13T08:37:09.663Z,81.30
2023-04-13T08:38:09.634Z,81.20
2023-04-13T08:39:09.679Z,81.06
2023-04-13T08:40:11.098Z,80.96
2023-04-13T08:41:09.824Z,80.55
2023-04-13T08:42:10.661Z,80.55
2023-04-13T08:43:09.654Z,80.35
2023-04-13T08:44:09.840Z,80.35
2023-04-13T08:45:09.594Z,80.24
2023-04-13T08:46:09.871Z,80.24
2023-04-13T08:47:09.568Z,80.24
2023-04-13T08:48:09.569Z,80.35
2023-04-13T08:49:09.578Z,80.45
2023-04-13T08:50:09.512Z,80.45
2023-04-13T08:51:09.515Z,80.04
2023-04-13T08:52:09.500Z,80.04
2023-04-13T08:53:09.477Z,80.24
2023-04-13T08:54:10.453Z,80.35
2023-04-13T08:55:10.941Z,80.45
2023-04-13T08:56:10.276Z,80.45
2023-04-13T08:57:10.899Z,80.55
2023-04-13T08:58:09.458Z,80.76
2023-04-13T08:59:09.421Z,80.65
2023-04-13T09:00:10.382Z,80.65
2023-04-13T09:01:10.410Z,80.45
2023-04-13T09:02:10.133Z,80.49
2023-04-13T09:03:12.673Z,80.69
2023-04-13T09:04:11.070Z,81.00
2023-04-13T09:05:09.763Z,81.37
2023-04-13T09:06:11.298Z,81.27
2023-04-13T09:07:09.439Z,81.16
2023-04-13T09:08:09.334Z,80.96
2023-04-13T09:09:10.842Z,80.96
2023-04-13T09:10:10.768Z,80.86
2023-04-13T09:11:10.283Z,80.86
2023-04-13T09:12:10.733Z,80.86
2023-04-13T09:13:10.770Z,80.82
2023-04-13T09:14:09.328Z,80.62
2023-04-13T09:15:09.316Z,80.41
2023-04-13T09:16:09.234Z,80.41
2023-04-13T09:17:10.102Z,80.17
2023-04-13T09:18:10.738Z,80.07
2023-04-13T09:19:10.650Z,79.62
2023-04-13T09:20:10.652Z,79.21
2023-04-13T09:21:09.228Z,79.00
2023-04-13T09:22:10.750Z,78.45
2023-04-13T09:23:11.318Z,77.94
2023-04-13T09:24:10.598Z,78.25
2023-04-13T09:25:10.592Z,77.94
2023-04-13T09:26:10.605Z,77.43
2023-04-13T09:27:09.329Z,77.02
2023-04-13T09:28:10.074Z,76.51
2023-04-13T09:29:10.613Z,76.37
2023-04-13T09:30:09.109Z,76.37
2023-04-13T09:31:10.579Z,76.06
2023-04-13T09:32:09.066Z,75.55
2023-04-13T09:33:09.192Z,75.76
2023-04-13T09:34:09.050Z,75.86
2023-04-13T09:35:09.046Z,75.55
2023-04-13T09:36:10.491Z,75.35
2023-04-13T09:37:09.013Z,75.28
2023-04-13T09:38:09.013Z,75.07
2023-04-13T09:39:09.798Z,75.18
2023-04-13T09:40:09.440Z,75.48
2023-04-13T09:41:10.441Z,75.79
2023-04-13T09:42:09.427Z,75.89
2023-04-13T09:43:08.956Z,75.89
2023-04-13T09:44:09.296Z,76.20
2023-04-13T09:45:10.411Z,76.10
2023-04-13T09:46:10.389Z,75.89
2023-04-13T09:47:08.951Z,75.69
2023-04-13T09:48:08.888Z,75.69
2023-04-13T09:49:09.120Z,75.48
2023-04-13T09:50:08.905Z,75.07
2023-04-13T09:51:09.665Z,75.18
2023-04-13T09:52:09.807Z,74.87
2023-04-13T09:53:08.894Z,74.46
2023-04-13T09:54:10.296Z,74.56
2023-04-13T09:55:08.849Z,74.66
2023-04-13T09:56:09.757Z,74.87
2023-04-13T09:57:09.746Z,75.07
2023-04-13T09:58:08.852Z,74.77
2023-04-13T09:59:09.801Z,74.56
2023-04-13T10:00:10.076Z,74.46
2023-04-13T10:01:08.788Z,74.46
2023-04-13T10:02:10.333Z,74.77
2023-04-13T10:03:09.063Z,75.07
2023-04-13T10:04:08.704Z,74.77
2023-04-13T10:05:08.977Z,74.05
2023-04-13T10:06:08.717Z,74.15
2023-04-13T10:07:10.197Z,74.56
2023-04-13T10:08:08.654Z,74.97
2023-04-13T10:09:08.899Z,75.28
2023-04-13T10:10:08.851Z,75.79
2023-04-13T10:11:10.089Z,75.69
2023-04-13T10:12:08.789Z,75.31
2023-04-13T10:13:08.608Z,75.31
2023-04-13T10:14:08.609Z,75.11
2023-04-13T10:15:10.036Z,75.21
2023-04-13T10:16:10.101Z,75.42
2023-04-13T10:17:09.410Z,75.18
2023-04-13T10:18:10.150Z,75.28
2023-04-13T10:19:09.994Z,75.38
2023-04-13T10:20:08.530Z,75.18
2023-04-13T10:21:09.978Z,75.18
2023-04-13T10:22:10.020Z,74.97
2023-04-13T10:23:08.745Z,74.32
2023-04-13T10:24:12.155Z,74.22
2023-04-13T10:25:10.793Z,74.11
2023-04-13T10:26:09.779Z,74.22
2023-04-13T10:27:09.911Z,74.32
2023-04-13T10:28:08.473Z,74.53
2023-04-13T10:29:08.450Z,74.63
2023-04-13T10:30:09.904Z,74.63
2023-04-13T10:31:08.901Z,74.19
2023-04-13T10:32:09.410Z,74.19
2023-04-13T10:33:09.379Z,74.29
2023-04-13T10:34:08.491Z,74.08
2023-04-13T10:35:09.823Z,73.47
2023-04-13T10:36:09.817Z,73.16
2023-04-13T10:37:09.166Z,73.27
2023-04-13T10:38:08.570Z,73.44
2023-04-13T10:39:09.810Z,73.33
2023-04-13T10:40:08.308Z,73.44
2023-04-13T10:41:09.069Z,73.30
2023-04-13T10:42:08.649Z,72.48
2023-04-13T10:43:09.746Z,72.17
2023-04-13T10:44:08.381Z,71.15
2023-04-13T10:45:09.205Z,70.92
2023-04-13T10:46:09.216Z,70.81
2023-04-13T10:47:09.286Z,70.61
2023-04-13T10:48:08.952Z,69.79
2023-04-13T10:49:08.200Z,69.18
2023-04-13T10:50:09.147Z,69.59
2023-04-13T10:51:09.539Z,69.79
2023-04-13T10:52:09.118Z,69.89
2023-04-13T10:53:09.611Z,69.59
2023-04-13T10:54:08.996Z,69.48
2023-04-13T10:55:08.325Z,69.07
2023-04-13T10:56:08.125Z,68.87
2023-04-13T10:57:09.135Z,69.07
2023-04-13T10:58:09.056Z,68.97
2023-04-13T10:59:08.571Z,68.57
2023-04-13T11:00:09.021Z,68.66
2023-04-13T11:01:09.531Z,68.57
2023-04-13T11:02:09.639Z,68.26
2023-04-13T11:03:09.364Z,68.08
2023-04-13T11:04:12.520Z,68.19
2023-04-13T11:05:09.100Z,68.60
2023-04-13T11:06:08.967Z,68.49
2023-04-13T11:07:09.457Z,68.08
2023-04-13T11:08:09.465Z,68.08
2023-04-13T11:09:09.442Z,68.39
2023-04-13T11:10:09.418Z,68.29
2023-04-13T11:11:14.805Z,68.19
2023-04-13T11:12:10.411Z,68.49
2023-04-13T11:13:08.884Z,68.49
2023-04-13T11:14:09.408Z,68.46
2023-04-13T11:15:08.875Z,67.24
2023-04-13T11:16:08.936Z,67.03
2023-04-13T11:17:07.956Z,67.34
2023-04-13T11:18:08.851Z,67.54
2023-04-13T11:19:07.876Z,67.95
2023-04-13T11:20:07.884Z,68.16
2023-04-13T11:21:08.969Z,68.36
2023-04-13T11:22:13.213Z,68.57
2023-04-13T11:23:07.813Z,68.46
2023-04-13T11:24:07.885Z,68.33
2023-04-13T11:25:08.670Z,68.02
2023-04-13T11:26:07.825Z,67.95
2023-04-13T11:27:07.774Z,67.82
2023-04-13T11:28:07.854Z,67.82
2023-04-13T11:29:07.900Z,67.71
2023-04-13T11:30:07.786Z,67.61
2023-04-13T11:31:07.880Z,67.82
2023-04-13T11:32:07.871Z,67.92
2023-04-13T11:33:07.921Z,67.51
2023-04-13T11:34:08.183Z,67.82
2023-04-13T11:35:07.696Z,67.61
2023-04-13T11:36:08.508Z,66.49
2023-04-13T11:37:07.689Z,65.67
2023-04-13T11:38:07.760Z,65.57
2023-04-13T11:39:10.224Z,65.67
2023-04-13T11:40:07.644Z,65.06
2023-04-13T11:41:16.500Z,65.37
2023-04-13T11:42:08.642Z,65.37
2023-04-13T11:43:07.623Z,65.16
2023-04-13T11:44:07.613Z,65.57
2023-04-13T11:45:07.897Z,65.77
2023-04-13T11:46:08.548Z,65.26
2023-04-13T11:47:07.650Z,64.96
2023-04-13T11:48:08.013Z,64.75
2023-04-13T11:49:07.775Z,64.55
2023-04-13T11:50:07.679Z,64.75
2023-04-13T11:51:07.522Z,65.23
2023-04-13T11:52:07.512Z,64.93
2023-04-13T11:53:07.550Z,64.52
2023-04-13T11:54:07.505Z,64.72
2023-04-13T11:55:21.524Z,64.83
2023-04-13T11:56:09.894Z,64.72
2023-04-13T11:57:07.516Z,64.79
2023-04-13T11:58:07.421Z,65.10
2023-04-13T11:59:08.486Z,65.07
2023-04-13T12:00:07.450Z,64.15
2023-04-13T12:01:13.760Z,63.75
2023-04-13T12:02:19.649Z,63.85
2023-04-13T12:03:24.446Z,63.71
2023-04-13T12:04:15.503Z,63.71
2023-04-13T12:05:09.369Z,63.99
2023-04-13T12:06:08.698Z,62.56
2023-04-13T12:07:07.933Z,62.36
2023-04-13T12:08:07.597Z,62.23
2023-04-13T12:09:12.569Z,61.52
2023-04-13T12:10:11.025Z,60.91
2023-04-13T12:11:36.502Z,61.52
2023-04-13T12:13:20.073Z,59.48
2023-04-13T12:14:12.349Z,59.30
2023-04-13T12:15:22.868Z,59.30
2023-04-13T12:16:13.345Z,59.81
2023-04-13T12:17:34.729Z,59.78
2023-04-13T12:18:15.437Z,59.78
2023-04-13T12:19:10.572Z,59.58
2023-04-13T12:20:07.622Z,59.71
2023-04-13T12:21:07.239Z,60.09
2023-04-13T12:22:07.272Z,60.30
2023-04-13T12:23:15.654Z,59.78
2023-04-13T12:24:11.422Z,60.02
2023-04-13T12:25:08.789Z,59.81
2023-04-13T12:26:41.218Z,59.61
2023-04-13T12:27:18.562Z,59.81
2023-04-13T12:28:09.554Z,60.22
2023-04-13T12:29:07.078Z,60.63
2023-04-13T12:30:07.187Z,61.24
2023-04-13T12:31:07.312Z,60.93
2023-04-13T12:32:07.099Z,61.14
2023-04-13T12:33:07.076Z,61.34
2023-04-13T12:34:07.030Z,61.34
2023-04-13T12:35:07.006Z,61.54
2023-04-13T12:36:07.041Z,60.25
2023-04-13T12:37:06.993Z,59.53
2023-04-13T12:38:07.806Z,59.53
2023-04-13T12:39:07.073Z,60.28
2023-04-13T12:40:06.959Z,60.38
2023-04-13T12:41:06.937Z,60.58
2023-04-13T12:42:06.977Z,60.58
2023-04-13T12:43:07.958Z,60.78
2023-04-13T12:44:06.927Z,60.78
2023-04-13T12:45:06.897Z,60.89
2023-04-13T12:46:06.959Z,60.42
2023-04-13T12:47:06.966Z,59.78
2023-04-13T12:48:06.964Z,59.70
2023-04-13T12:49:06.880Z,58.73
2023-04-13T12:50:06.858Z,57.66
2023-04-13T12:51:06.871Z,56.52
2023-04-13T12:52:06.858Z,56.18
2023-04-13T12:53:06.830Z,54.64